sensor_id;sensor_type;location;lat;lon;timestamp;P1;P2;P0
43479;PMS5003;29067;35.492;-97.520;2023-03-26T00:01:19;0;0;
43479;PMS5003;29067;35.492;-97.520;2023-03-26T00:03:51;1;1;
43479;PMS5003;29067;35.492;-97.520;2023-03-26T00:06:20;0;0;
43479;PMS5003;29067;35.492;-97.520;2023-03-26T00:08:49;1;1;
43479;PMS5003;29067;35.492;-97.520;2023-03-26T00:11:19;0;0;
43479;PMS5003;29067;35.492;-97.520;2023-03-26T00:13:49;1;1;
43479;PMS5003;29067;35.492;-97.520;2023-03-26T00:16:17;0;0;
43479;PMS5003;29067;35.492;-97.520;2023-03-26T00:18:46;0;0;
43479;PMS5003;29067;35.492;-97.520;2023-03-26T00:21:16;1;1;
43479;PMS5003;29067;35.492;-97.520;2023-03-26T00:23:47;2;2;
43479;PMS5003;29067;35.492;-97.520;2023-03-26T00:26:15;2;2;
43479;PMS5003;29067;35.492;-97.520;2023-03-26T00:28:43;2;2;
43479;PMS5003;29067;35.492;-97.520;2023-03-26T00:31:11;1;1;
43479;PMS5003;29067;35.492;-97.520;2023-03-26T00:33:40;0;0;
43479;PMS5003;29067;35.492;-97.520;2023-03-26T00:36:09;1;1;
43479;PMS5003;29067;35.492;-97.520;2023-03-26T00:38:40;1;1;
43479;PMS5003;29067;35.492;-97.520;2023-03-26T00:41:10;1;1;
43479;PMS5003;29067;35.492;-97.520;2023-03-26T00:43:40;1;1;
43479;PMS5003;29067;35.492;-97.520;2023-03-26T00:46:08;2;2;
43479;PMS5003;29067;35.492;-97.520;2023-03-26T00:48:36;2;2;
43479;PMS5003;29067;35.492;-97.520;2023-03-26T00:51:05;2;2;
43479;PMS5003;29067;35.492;-97.520;2023-03-26T00:53:34;2;2;
43479;PMS5003;29067;35.492;-97.520;2023-03-26T00:56:03;12;12;
43479;PMS5003;29067;35.492;-97.520;2023-03-26T00:58:32;17;17;
43479;PMS5003;29067;35.492;-97.520;2023-03-26T01:01:01;19;17;
43479;PMS5003;29067;35.492;-97.520;2023-03-26T01:03:32;27;24;
43479;PMS5003;29067;35.492;-97.520;2023-03-26T01:06:02;44;38;
43479;PMS5003;29067;35.492;-97.520;2023-03-26T01:08:33;40;37;
43479;PMS5003;29067;35.492;-97.520;2023-03-26T01:11:05;43;39;
43479;PMS5003;29067;35.492;-97.520;2023-03-26T01:13:36;3;3;
43479;PMS5003;29067;35.492;-97.520;2023-03-26T01:16:06;6;5;
43479;PMS5003;29067;35.492;-97.520;2023-03-26T01:18:43;5;4;
43479;PMS5003;29067;35.492;-97.520;2023-03-26T01:21:11;3;3;
43479;PMS5003;29067;35.492;-97.520;2023-03-26T01:23:41;3;3;
43479;PMS5003;29067;35.492;-97.520;2023-03-26T01:26:17;5;3;
43479;PMS5003;29067;35.492;-97.520;2023-03-26T01:28:54;4;3;
43479;PMS5003;29067;35.492;-97.520;2023-03-26T01:31:26;3;2;
43479;PMS5003;29067;35.492;-97.520;2023-03-26T01:34:01;4;4;
43479;PMS5003;29067;35.492;-97.520;2023-03-26T01:36:40;3;2;
43479;PMS5003;29067;35.492;-97.520;2023-03-26T01:39:15;4;3;
43479;PMS5003;29067;35.492;-97.520;2023-03-26T01:41:50;6;6;
43479;PMS5003;29067;35.492;-97.520;2023-03-26T01:44:26;4;3;
43479;PMS5003;29067;35.492;-97.520;2023-03-26T01:47:00;3;3;
43479;PMS5003;29067;35.492;-97.520;2023-03-26T01:49:29;1;1;
43479;PMS5003;29067;35.492;-97.520;2023-03-26T01:51:57;2;1;
43479;PMS5003;29067;35.492;-97.520;2023-03-26T01:54:26;2;2;
43479;PMS5003;29067;35.492;-97.520;2023-03-26T01:57:00;1;1;
43479;PMS5003;29067;35.492;-97.520;2023-03-26T01:59:46;2;2;
43479;PMS5003;29067;35.492;-97.520;2023-03-26T02:02:27;2;2;
43479;PMS5003;29067;35.492;-97.520;2023-03-26T02:05:03;3;2;
43479;PMS5003;29067;35.492;-97.520;2023-03-26T02:07:39;2;2;
43479;PMS5003;29067;35.492;-97.520;2023-03-26T02:10:12;2;2;
43479;PMS5003;29067;35.492;-97.520;2023-03-26T02:12:46;2;2;
43479;PMS5003;29067;35.492;-97.520;2023-03-26T02:15:15;3;3;
43479;PMS5003;29067;35.492;-97.520;2023-03-26T02:17:43;1;1;
43479;PMS5003;29067;35.492;-97.520;2023-03-26T02:20:12;2;2;
43479;PMS5003;29067;35.492;-97.520;2023-03-26T02:22:42;1;1;
43479;PMS5003;29067;35.492;-97.520;2023-03-26T02:25:10;2;2;
43479;PMS5003;29067;35.492;-97.520;2023-03-26T02:27:43;2;2;
43479;PMS5003;29067;35.492;-97.520;2023-03-26T02:30:12;2;2;
43479;PMS5003;29067;35.492;-97.520;2023-03-26T02:32:44;1;1;
43479;PMS5003;29067;35.492;-97.520;2023-03-26T02:35:12;1;1;
43479;PMS5003;29067;35.492;-97.520;2023-03-26T02:37:39;1;1;
43479;PMS5003;29067;35.492;-97.520;2023-03-26T02:40:08;2;1;
43479;PMS5003;29067;35.492;-97.520;2023-03-26T02:42:36;0;0;
43479;PMS5003;29067;35.492;-97.520;2023-03-26T02:45:05;1;1;
43479;PMS5003;29067;35.492;-97.520;2023-03-26T02:47:33;0;0;
43479;PMS5003;29067;35.492;-97.520;2023-03-26T02:50:01;0;0;
43479;PMS5003;29067;35.492;-97.520;2023-03-26T02:52:29;1;1;
43479;PMS5003;29067;35.492;-97.520;2023-03-26T02:54:58;0;0;
43479;PMS5003;29067;35.492;-97.520;2023-03-26T02:57:26;0;0;
43479;PMS5003;29067;35.492;-97.520;2023-03-26T02:59:54;1;1;
43479;PMS5003;29067;35.492;-97.520;2023-03-26T03:02:23;2;2;
43479;PMS5003;29067;35.492;-97.520;2023-03-26T03:04:50;1;1;
43479;PMS5003;29067;35.492;-97.520;2023-03-26T03:07:19;0;0;
43479;PMS5003;29067;35.492;-97.520;2023-03-26T03:09:47;2;2;
43479;PMS5003;29067;35.492;-97.520;2023-03-26T03:12:15;0;0;
43479;PMS5003;29067;35.492;-97.520;2023-03-26T03:14:43;1;1;
43479;PMS5003;29067;35.492;-97.520;2023-03-26T03:17:10;1;1;
43479;PMS5003;29067;35.492;-97.520;2023-03-26T03:19:38;1;1;
43479;PMS5003;29067;35.492;-97.520;2023-03-26T03:22:06;1;0;
43479;PMS5003;29067;35.492;-97.520;2023-03-26T03:24:39;1;1;
43479;PMS5003;29067;35.492;-97.520;2023-03-26T03:27:08;0;0;
43479;PMS5003;29067;35.492;-97.520;2023-03-26T03:29:38;0;0;
43479;PMS5003;29067;35.492;-97.520;2023-03-26T03:32:06;0;0;
43479;PMS5003;29067;35.492;-97.520;2023-03-26T03:34:34;0;0;
43479;PMS5003;29067;35.492;-97.520;2023-03-26T03:37:02;0;0;
43479;PMS5003;29067;35.492;-97.520;2023-03-26T03:39:43;0;0;
43479;PMS5003;29067;35.492;-97.520;2023-03-26T03:42:12;0;0;
43479;PMS5003;29067;35.492;-97.520;2023-03-26T03:44:45;0;0;
43479;PMS5003;29067;35.492;-97.520;2023-03-26T03:47:15;0;0;
43479;PMS5003;29067;35.492;-97.520;2023-03-26T03:49:42;0;0;
43479;PMS5003;29067;35.492;-97.520;2023-03-26T03:52:10;1;1;
43479;PMS5003;29067;35.492;-97.520;2023-03-26T03:54:38;1;0;
43479;PMS5003;29067;35.492;-97.520;2023-03-26T03:57:06;0;0;
43479;PMS5003;29067;35.492;-97.520;2023-03-26T03:59:34;0;0;
43479;PMS5003;29067;35.492;-97.520;2023-03-26T04:02:02;0;0;
43479;PMS5003;29067;35.492;-97.520;2023-03-26T04:04:30;1;1;
43479;PMS5003;29067;35.492;-97.520;2023-03-26T04:06:57;1;1;
43479;PMS5003;29067;35.492;-97.520;2023-03-26T04:09:25;1;1;
43479;PMS5003;29067;35.492;-97.520;2023-03-26T04:11:53;0;0;
43479;PMS5003;29067;35.492;-97.520;2023-03-26T04:14:21;1;0;
43479;PMS5003;29067;35.492;-97.520;2023-03-26T04:16:49;1;1;
43479;PMS5003;29067;35.492;-97.520;2023-03-26T04:19:17;0;0;
43479;PMS5003;29067;35.492;-97.520;2023-03-26T04:21:45;1;0;
43479;PMS5003;29067;35.492;-97.520;2023-03-26T04:24:13;0;0;
43479;PMS5003;29067;35.492;-97.520;2023-03-26T04:26:41;0;0;
43479;PMS5003;29067;35.492;-97.520;2023-03-26T04:29:09;1;0;
43479;PMS5003;29067;35.492;-97.520;2023-03-26T04:31:41;1;1;
43479;PMS5003;29067;35.492;-97.520;2023-03-26T04:34:13;1;1;
43479;PMS5003;29067;35.492;-97.520;2023-03-26T04:36:47;1;1;
43479;PMS5003;29067;35.492;-97.520;2023-03-26T04:39:15;1;1;
43479;PMS5003;29067;35.492;-97.520;2023-03-26T04:41:44;1;0;
43479;PMS5003;29067;35.492;-97.520;2023-03-26T04:44:12;0;0;
43479;PMS5003;29067;35.492;-97.520;2023-03-26T04:46:39;0;0;
43479;PMS5003;29067;35.492;-97.520;2023-03-26T04:49:07;0;0;
43479;PMS5003;29067;35.492;-97.520;2023-03-26T04:51:37;1;1;
43479;PMS5003;29067;35.492;-97.520;2023-03-26T04:54:06;0;0;
43479;PMS5003;29067;35.492;-97.520;2023-03-26T04:56:38;1;0;
43479;PMS5003;29067;35.492;-97.520;2023-03-26T04:59:12;0;0;
43479;PMS5003;29067;35.492;-97.520;2023-03-26T05:01:43;1;1;
43479;PMS5003;29067;35.492;-97.520;2023-03-26T05:04:11;1;0;
43479;PMS5003;29067;35.492;-97.520;2023-03-26T05:06:40;1;1;
43479;PMS5003;29067;35.492;-97.520;2023-03-26T05:09:12;1;1;
43479;PMS5003;29067;35.492;-97.520;2023-03-26T05:11:42;1;0;
43479;PMS5003;29067;35.492;-97.520;2023-03-26T05:14:09;0;0;
43479;PMS5003;29067;35.492;-97.520;2023-03-26T05:16:37;1;1;
43479;PMS5003;29067;35.492;-97.520;2023-03-26T05:19:05;0;0;
43479;PMS5003;29067;35.492;-97.520;2023-03-26T05:21:34;1;1;
43479;PMS5003;29067;35.492;-97.520;2023-03-26T05:24:03;1;1;
43479;PMS5003;29067;35.492;-97.520;2023-03-26T05:26:32;1;1;
43479;PMS5003;29067;35.492;-97.520;2023-03-26T05:29:00;1;1;
43479;PMS5003;29067;35.492;-97.520;2023-03-26T05:31:28;0;0;
43479;PMS5003;29067;35.492;-97.520;2023-03-26T05:33:57;1;1;
43479;PMS5003;29067;35.492;-97.520;2023-03-26T05:36:25;3;2;
43479;PMS5003;29067;35.492;-97.520;2023-03-26T05:38:53;1;1;
43479;PMS5003;29067;35.492;-97.520;2023-03-26T05:41:21;1;1;
43479;PMS5003;29067;35.492;-97.520;2023-03-26T05:43:49;2;2;
43479;PMS5003;29067;35.492;-97.520;2023-03-26T05:46:17;1;1;
43479;PMS5003;29067;35.492;-97.520;2023-03-26T05:48:45;1;1;
43479;PMS5003;29067;35.492;-97.520;2023-03-26T05:51:13;2;1;
43479;PMS5003;29067;35.492;-97.520;2023-03-26T05:53:41;3;3;
43479;PMS5003;29067;35.492;-97.520;2023-03-26T05:56:09;10;10;
43479;PMS5003;29067;35.492;-97.520;2023-03-26T05:58:38;21;21;
43479;PMS5003;29067;35.492;-97.520;2023-03-26T06:01:07;62;62;
43479;PMS5003;29067;35.492;-97.520;2023-03-26T06:03:37;13;11;
43479;PMS5003;29067;35.492;-97.520;2023-03-26T06:06:07;46;46;
43479;PMS5003;29067;35.492;-97.520;2023-03-26T06:08:36;67;67;
43479;PMS5003;29067;35.492;-97.520;2023-03-26T06:11:05;49;49;
43479;PMS5003;29067;35.492;-97.520;2023-03-26T06:13:32;28;28;
43479;PMS5003;29067;35.492;-97.520;2023-03-26T06:16:00;50;50;
43479;PMS5003;29067;35.492;-97.520;2023-03-26T06:18:29;54;54;
43479;PMS5003;29067;35.492;-97.520;2023-03-26T06:20:57;23;23;
43479;PMS5003;29067;35.492;-97.520;2023-03-26T06:23:25;24;24;
43479;PMS5003;29067;35.492;-97.520;2023-03-26T06:25:54;60;60;
43479;PMS5003;29067;35.492;-97.520;2023-03-26T06:28:22;29;29;
43479;PMS5003;29067;35.492;-97.520;2023-03-26T06:30:50;16;13;
43479;PMS5003;29067;35.492;-97.520;2023-03-26T06:33:18;69;69;
43479;PMS5003;29067;35.492;-97.520;2023-03-26T06:35:46;108;108;
43479;PMS5003;29067;35.492;-97.520;2023-03-26T06:38:14;15;11;
43479;PMS5003;29067;35.492;-97.520;2023-03-26T06:40:42;46;46;
43479;PMS5003;29067;35.492;-97.520;2023-03-26T06:43:10;17;15;
43479;PMS5003;29067;35.492;-97.520;2023-03-26T06:45:38;33;31;
43479;PMS5003;29067;35.492;-97.520;2023-03-26T06:48:06;44;44;
43479;PMS5003;29067;35.492;-97.520;2023-03-26T06:50:34;20;16;
43479;PMS5003;29067;35.492;-97.520;2023-03-26T06:53:02;22;20;
43479;PMS5003;29067;35.492;-97.520;2023-03-26T06:55:30;14;11;
43479;PMS5003;29067;35.492;-97.520;2023-03-26T06:57:58;72;72;
43479;PMS5003;29067;35.492;-97.520;2023-03-26T07:00:26;14;13;
43479;PMS5003;29067;35.492;-97.520;2023-03-26T07:02:54;35;32;
43479;PMS5003;29067;35.492;-97.520;2023-03-26T07:05:23;35;32;
43479;PMS5003;29067;35.492;-97.520;2023-03-26T07:07:51;13;10;
43479;PMS5003;29067;35.492;-97.520;2023-03-26T07:10:19;16;14;
43479;PMS5003;29067;35.492;-97.520;2023-03-26T07:12:48;35;34;
43479;PMS5003;29067;35.492;-97.520;2023-03-26T07:15:15;16;11;
43479;PMS5003;29067;35.492;-97.520;2023-03-26T07:17:44;17;13;
43479;PMS5003;29067;35.492;-97.520;2023-03-26T07:20:12;38;34;
43479;PMS5003;29067;35.492;-97.520;2023-03-26T07:22:40;10;7;
43479;PMS5003;29067;35.492;-97.520;2023-03-26T07:25:09;13;8;
43479;PMS5003;29067;35.492;-97.520;2023-03-26T07:27:42;17;14;
43479;PMS5003;29067;35.492;-97.520;2023-03-26T07:30:17;23;20;
43479;PMS5003;29067;35.492;-97.520;2023-03-26T07:32:52;26;21;
43479;PMS5003;29067;35.492;-97.520;2023-03-26T07:35:26;15;10;
43479;PMS5003;29067;35.492;-97.520;2023-03-26T07:38:05;16;13;
43479;PMS5003;29067;35.492;-97.520;2023-03-26T07:40:46;19;15;
43479;PMS5003;29067;35.492;-97.520;2023-03-26T07:43:28;7;3;
43479;PMS5003;29067;35.492;-97.520;2023-03-26T07:46:07;22;17;
43479;PMS5003;29067;35.492;-97.520;2023-03-26T07:48:38;14;10;
43479;PMS5003;29067;35.492;-97.520;2023-03-26T07:51:09;19;15;
43479;PMS5003;29067;35.492;-97.520;2023-03-26T07:53:37;20;16;
43479;PMS5003;29067;35.492;-97.520;2023-03-26T07:56:08;19;15;
43479;PMS5003;29067;35.492;-97.520;2023-03-26T07:58:47;20;16;
43479;PMS5003;29067;35.492;-97.520;2023-03-26T08:01:25;14;10;
43479;PMS5003;29067;35.492;-97.520;2023-03-26T08:04:09;22;19;
43479;PMS5003;29067;35.492;-97.520;2023-03-26T08:06:51;28;25;
43479;PMS5003;29067;35.492;-97.520;2023-03-26T08:09:27;21;16;
43479;PMS5003;29067;35.492;-97.520;2023-03-26T08:12:02;19;14;
43479;PMS5003;29067;35.492;-97.520;2023-03-26T08:14:41;19;15;
43479;PMS5003;29067;35.492;-97.520;2023-03-26T08:17:21;24;20;
43479;PMS5003;29067;35.492;-97.520;2023-03-26T08:19:56;31;27;
43479;PMS5003;29067;35.492;-97.520;2023-03-26T08:22:33;39;36;
43479;PMS5003;29067;35.492;-97.520;2023-03-26T08:25:12;54;50;
43479;PMS5003;29067;35.492;-97.520;2023-03-26T08:27:50;154;150;
43479;PMS5003;29067;35.492;-97.520;2023-03-26T08:30:30;130;126;
43479;PMS5003;29067;35.492;-97.520;2023-03-26T08:32:59;3;2;
43479;PMS5003;29067;35.492;-97.520;2023-03-26T08:35:36;4;3;
43479;PMS5003;29067;35.492;-97.520;2023-03-26T08:38:05;3;3;
43479;PMS5003;29067;35.492;-97.520;2023-03-26T08:40:40;3;3;
43479;PMS5003;29067;35.492;-97.520;2023-03-26T08:46:02;2;2;
43479;PMS5003;29067;35.492;-97.520;2023-03-26T08:48:58;3;3;
43479;PMS5003;29067;35.492;-97.520;2023-03-26T08:51:50;3;3;
43479;PMS5003;29067;35.492;-97.520;2023-03-26T08:54:53;2;2;
43479;PMS5003;29067;35.492;-97.520;2023-03-26T08:59:45;3;3;
43479;PMS5003;29067;35.492;-97.520;2023-03-26T09:02:31;2;1;
43479;PMS5003;29067;35.492;-97.520;2023-03-26T09:05:19;1;1;
43479;PMS5003;29067;35.492;-97.520;2023-03-26T09:09:18;2;2;
43479;PMS5003;29067;35.492;-97.520;2023-03-26T09:12:06;2;2;
43479;PMS5003;29067;35.492;-97.520;2023-03-26T09:15:27;2;1;
43479;PMS5003;29067;35.492;-97.520;2023-03-26T09:19:13;2;2;
43479;PMS5003;29067;35.492;-97.520;2023-03-26T09:22:09;3;2;
43479;PMS5003;29067;35.492;-97.520;2023-03-26T09:26:03;2;2;
43479;PMS5003;29067;35.492;-97.520;2023-03-26T09:29:07;2;2;
43479;PMS5003;29067;35.492;-97.520;2023-03-26T09:32:00;1;1;
43479;PMS5003;29067;35.492;-97.520;2023-03-26T09:34:20;1;1;
43479;PMS5003;29067;35.492;-97.520;2023-03-26T09:36:54;1;1;
43479;PMS5003;29067;35.492;-97.520;2023-03-26T09:39:33;1;1;
43479;PMS5003;29067;35.492;-97.520;2023-03-26T09:42:12;2;2;
43479;PMS5003;29067;35.492;-97.520;2023-03-26T09:44:51;1;1;
43479;PMS5003;29067;35.492;-97.520;2023-03-26T09:47:41;2;2;
43479;PMS5003;29067;35.492;-97.520;2023-03-26T09:50:26;2;2;
43479;PMS5003;29067;35.492;-97.520;2023-03-26T09:53:10;1;1;
43479;PMS5003;29067;35.492;-97.520;2023-03-26T09:55:55;1;1;
43479;PMS5003;29067;35.492;-97.520;2023-03-26T09:58:37;1;1;
43479;PMS5003;29067;35.492;-97.520;2023-03-26T10:01:19;2;2;
43479;PMS5003;29067;35.492;-97.520;2023-03-26T10:04:06;2;2;
43479;PMS5003;29067;35.492;-97.520;2023-03-26T10:06:59;1;1;
43479;PMS5003;29067;35.492;-97.520;2023-03-26T10:09:38;6;2;
43479;PMS5003;29067;35.492;-97.520;2023-03-26T10:12:19;1;1;
43479;PMS5003;29067;35.492;-97.520;2023-03-26T10:14:59;1;1;
43479;PMS5003;29067;35.492;-97.520;2023-03-26T10:17:47;3;2;
43479;PMS5003;29067;35.492;-97.520;2023-03-26T10:20:30;2;2;
43479;PMS5003;29067;35.492;-97.520;2023-03-26T10:23:16;2;2;
43479;PMS5003;29067;35.492;-97.520;2023-03-26T10:26:01;1;1;
43479;PMS5003;29067;35.492;-97.520;2023-03-26T10:28:52;2;1;
43479;PMS5003;29067;35.492;-97.520;2023-03-26T10:31:35;2;2;
43479;PMS5003;29067;35.492;-97.520;2023-03-26T10:34:12;3;2;
43479;PMS5003;29067;35.492;-97.520;2023-03-26T10:36:50;2;2;
43479;PMS5003;29067;35.492;-97.520;2023-03-26T10:39:56;2;2;
43479;PMS5003;29067;35.492;-97.520;2023-03-26T10:42:40;2;2;
43479;PMS5003;29067;35.492;-97.520;2023-03-26T10:45:24;2;2;
43479;PMS5003;29067;35.492;-97.520;2023-03-26T10:48:09;2;2;
43479;PMS5003;29067;35.492;-97.520;2023-03-26T10:50:49;2;2;
43479;PMS5003;29067;35.492;-97.520;2023-03-26T10:53:29;3;2;
43479;PMS5003;29067;35.492;-97.520;2023-03-26T10:56:05;2;2;
43479;PMS5003;29067;35.492;-97.520;2023-03-26T10:58:40;1;1;
43479;PMS5003;29067;35.492;-97.520;2023-03-26T11:03:08;2;2;
43479;PMS5003;29067;35.492;-97.520;2023-03-26T11:05:48;2;2;
43479;PMS5003;29067;35.492;-97.520;2023-03-26T11:08:26;2;2;
43479;PMS5003;29067;35.492;-97.520;2023-03-26T11:11:03;2;2;
43479;PMS5003;29067;35.492;-97.520;2023-03-26T11:13:41;1;1;
43479;PMS5003;29067;35.492;-97.520;2023-03-26T11:16:17;2;2;
43479;PMS5003;29067;35.492;-97.520;2023-03-26T11:18:56;3;3;
43479;PMS5003;29067;35.492;-97.520;2023-03-26T11:21:31;1;1;
43479;PMS5003;29067;35.492;-97.520;2023-03-26T11:24:07;3;2;
43479;PMS5003;29067;35.492;-97.520;2023-03-26T11:26:54;2;2;
43479;PMS5003;29067;35.492;-97.520;2023-03-26T11:29:29;2;2;
43479;PMS5003;29067;35.492;-97.520;2023-03-26T11:32:10;1;1;
43479;PMS5003;29067;35.492;-97.520;2023-03-26T11:34:43;2;2;
43479;PMS5003;29067;35.492;-97.520;2023-03-26T11:37:17;2;2;
43479;PMS5003;29067;35.492;-97.520;2023-03-26T11:39:53;3;3;
43479;PMS5003;29067;35.492;-97.520;2023-03-26T11:42:24;2;2;
43479;PMS5003;29067;35.492;-97.520;2023-03-26T11:44:54;3;2;
43479;PMS5003;29067;35.492;-97.520;2023-03-26T11:47:28;2;2;
43479;PMS5003;29067;35.492;-97.520;2023-03-26T11:50:02;1;1;
43479;PMS5003;29067;35.492;-97.520;2023-03-26T11:52:32;2;2;
43479;PMS5003;29067;35.492;-97.520;2023-03-26T11:55:00;1;1;
43479;PMS5003;29067;35.492;-97.520;2023-03-26T11:57:28;2;2;
43479;PMS5003;29067;35.492;-97.520;2023-03-26T12:00:01;2;2;
43479;PMS5003;29067;35.492;-97.520;2023-03-26T12:02:37;1;1;
43479;PMS5003;29067;35.492;-97.520;2023-03-26T12:05:13;2;2;
43479;PMS5003;29067;35.492;-97.520;2023-03-26T12:07:45;1;1;
43479;PMS5003;29067;35.492;-97.520;2023-03-26T12:10:23;1;1;
43479;PMS5003;29067;35.492;-97.520;2023-03-26T12:12:55;3;2;
43479;PMS5003;29067;35.492;-97.520;2023-03-26T12:15:26;1;1;
43479;PMS5003;29067;35.492;-97.520;2023-03-26T12:17:56;1;1;
43479;PMS5003;29067;35.492;-97.520;2023-03-26T12:20:30;2;1;
43479;PMS5003;29067;35.492;-97.520;2023-03-26T12:23:01;2;2;
43479;PMS5003;29067;35.492;-97.520;2023-03-26T12:25:32;2;2;
43479;PMS5003;29067;35.492;-97.520;2023-03-26T12:28:02;2;2;
43479;PMS5003;29067;35.492;-97.520;2023-03-26T12:30:31;2;2;
43479;PMS5003;29067;35.492;-97.520;2023-03-26T12:33:02;2;2;
43479;PMS5003;29067;35.492;-97.520;2023-03-26T12:35:33;3;3;
43479;PMS5003;29067;35.492;-97.520;2023-03-26T12:38:21;3;3;
43479;PMS5003;29067;35.492;-97.520;2023-03-26T12:41:02;2;2;
43479;PMS5003;29067;35.492;-97.520;2023-03-26T12:43:35;2;2;
43479;PMS5003;29067;35.492;-97.520;2023-03-26T12:46:18;3;3;
43479;PMS5003;29067;35.492;-97.520;2023-03-26T12:48:51;3;3;
43479;PMS5003;29067;35.492;-97.520;2023-03-26T12:51:24;2;2;
43479;PMS5003;29067;35.492;-97.520;2023-03-26T12:54:12;3;3;
43479;PMS5003;29067;35.492;-97.520;2023-03-26T12:56:55;3;3;
43479;PMS5003;29067;35.492;-97.520;2023-03-26T12:59:39;6;5;
43479;PMS5003;29067;35.492;-97.520;2023-03-26T13:02:23;2;2;
43479;PMS5003;29067;35.492;-97.520;2023-03-26T13:05:17;3;3;
43479;PMS5003;29067;35.492;-97.520;2023-03-26T13:08:01;4;4;
43479;PMS5003;29067;35.492;-97.520;2023-03-26T13:10:41;3;3;
43479;PMS5003;29067;35.492;-97.520;2023-03-26T13:13:20;3;3;
43479;PMS5003;29067;35.492;-97.520;2023-03-26T13:17:08;3;3;
43479;PMS5003;29067;35.492;-97.520;2023-03-26T13:19:47;2;2;
43479;PMS5003;29067;35.492;-97.520;2023-03-26T13:22:27;3;3;
43479;PMS5003;29067;35.492;-97.520;2023-03-26T13:25:06;3;3;
43479;PMS5003;29067;35.492;-97.520;2023-03-26T13:27:54;3;3;
43479;PMS5003;29067;35.492;-97.520;2023-03-26T13:30:36;2;2;
43479;PMS5003;29067;35.492;-97.520;2023-03-26T13:33:15;3;3;
43479;PMS5003;29067;35.492;-97.520;2023-03-26T13:35:54;3;3;
43479;PMS5003;29067;35.492;-97.520;2023-03-26T13:38:34;4;4;
43479;PMS5003;29067;35.492;-97.520;2023-03-26T13:41:12;3;3;
43479;PMS5003;29067;35.492;-97.520;2023-03-26T13:44:01;3;3;
43479;PMS5003;29067;35.492;-97.520;2023-03-26T13:46:37;4;4;
43479;PMS5003;29067;35.492;-97.520;2023-03-26T13:49:09;18;16;
43479;PMS5003;29067;35.492;-97.520;2023-03-26T13:51:40;4;4;
43479;PMS5003;29067;35.492;-97.520;2023-03-26T13:54:15;6;4;
43479;PMS5003;29067;35.492;-97.520;2023-03-26T13:56:49;6;6;
43479;PMS5003;29067;35.492;-97.520;2023-03-26T13:59:23;11;10;
43479;PMS5003;29067;35.492;-97.520;2023-03-26T14:02:00;19;16;
43479;PMS5003;29067;35.492;-97.520;2023-03-26T14:04:32;7;7;
43479;PMS5003;29067;35.492;-97.520;2023-03-26T14:07:07;10;10;
43479;PMS5003;29067;35.492;-97.520;2023-03-26T14:09:39;10;10;
43479;PMS5003;29067;35.492;-97.520;2023-03-26T14:12:17;5;5;
43479;PMS5003;29067;35.492;-97.520;2023-03-26T14:15:01;34;33;
43479;PMS5003;29067;35.492;-97.520;2023-03-26T14:17:32;17;17;
43479;PMS5003;29067;35.492;-97.520;2023-03-26T14:21:18;6;6;
43479;PMS5003;29067;35.492;-97.520;2023-03-26T14:24:21;8;8;
43479;PMS5003;29067;35.492;-97.520;2023-03-26T14:27:03;11;10;
43479;PMS5003;29067;35.492;-97.520;2023-03-26T14:29:49;5;5;
43479;PMS5003;29067;35.492;-97.520;2023-03-26T14:32:28;6;6;
43479;PMS5003;29067;35.492;-97.520;2023-03-26T14:35:17;4;4;
43479;PMS5003;29067;35.492;-97.520;2023-03-26T14:37:58;5;5;
43479;PMS5003;29067;35.492;-97.520;2023-03-26T14:40:55;4;4;
43479;PMS5003;29067;35.492;-97.520;2023-03-26T14:47:40;8;8;
43479;PMS5003;29067;35.492;-97.520;2023-03-26T14:50:49;11;11;
43479;PMS5003;29067;35.492;-97.520;2023-03-26T14:53:28;8;6;
43479;PMS5003;29067;35.492;-97.520;2023-03-26T14:56:02;4;3;
43479;PMS5003;29067;35.492;-97.520;2023-03-26T14:59:24;6;5;
43479;PMS5003;29067;35.492;-97.520;2023-03-26T15:02:50;7;7;
43479;PMS5003;29067;35.492;-97.520;2023-03-26T15:05:22;7;7;
43479;PMS5003;29067;35.492;-97.520;2023-03-26T15:10:57;4;4;
43479;PMS5003;29067;35.492;-97.520;2023-03-26T15:13:42;5;5;
43479;PMS5003;29067;35.492;-97.520;2023-03-26T15:16:11;5;5;
43479;PMS5003;29067;35.492;-97.520;2023-03-26T15:19:18;5;5;
43479;PMS5003;29067;35.492;-97.520;2023-03-26T15:22:33;4;4;
43479;PMS5003;29067;35.492;-97.520;2023-03-26T15:25:49;4;4;
43479;PMS5003;29067;35.492;-97.520;2023-03-26T15:29:02;5;5;
43479;PMS5003;29067;35.492;-97.520;2023-03-26T15:31:44;4;3;
43479;PMS5003;29067;35.492;-97.520;2023-03-26T15:34:39;3;3;
43479;PMS5003;29067;35.492;-97.520;2023-03-26T15:37:37;4;4;
43479;PMS5003;29067;35.492;-97.520;2023-03-26T15:40:25;6;5;
43479;PMS5003;29067;35.492;-97.520;2023-03-26T15:43:04;4;4;
43479;PMS5003;29067;35.492;-97.520;2023-03-26T15:45:39;4;3;
43479;PMS5003;29067;35.492;-97.520;2023-03-26T15:48:47;2;2;
43479;PMS5003;29067;35.492;-97.520;2023-03-26T15:51:28;4;4;
43479;PMS5003;29067;35.492;-97.520;2023-03-26T15:54:08;2;2;
43479;PMS5003;29067;35.492;-97.520;2023-03-26T15:56:52;4;4;
43479;PMS5003;29067;35.492;-97.520;2023-03-26T15:59:35;4;3;
43479;PMS5003;29067;35.492;-97.520;2023-03-26T16:02:12;3;3;
43479;PMS5003;29067;35.492;-97.520;2023-03-26T16:04:49;3;3;
43479;PMS5003;29067;35.492;-97.520;2023-03-26T16:07:42;4;3;
43479;PMS5003;29067;35.492;-97.520;2023-03-26T16:10:23;3;3;
43479;PMS5003;29067;35.492;-97.520;2023-03-26T16:13:16;3;3;
43479;PMS5003;29067;35.492;-97.520;2023-03-26T16:15:53;3;3;
43479;PMS5003;29067;35.492;-97.520;2023-03-26T16:18:24;4;4;
43479;PMS5003;29067;35.492;-97.520;2023-03-26T16:21:35;2;2;
43479;PMS5003;29067;35.492;-97.520;2023-03-26T16:24:22;4;4;
43479;PMS5003;29067;35.492;-97.520;2023-03-26T16:27:01;4;3;
43479;PMS5003;29067;35.492;-97.520;2023-03-26T16:30:11;3;3;
43479;PMS5003;29067;35.492;-97.520;2023-03-26T16:32:51;3;2;
43479;PMS5003;29067;35.492;-97.520;2023-03-26T16:35:34;3;3;
43479;PMS5003;29067;35.492;-97.520;2023-03-26T16:38:09;4;4;
43479;PMS5003;29067;35.492;-97.520;2023-03-26T16:40:57;3;3;
43479;PMS5003;29067;35.492;-97.520;2023-03-26T16:43:43;5;4;
43479;PMS5003;29067;35.492;-97.520;2023-03-26T16:46:26;5;5;
43479;PMS5003;29067;35.492;-97.520;2023-03-26T16:49:01;4;4;
43479;PMS5003;29067;35.492;-97.520;2023-03-26T16:51:48;4;4;
43479;PMS5003;29067;35.492;-97.520;2023-03-26T16:54:31;4;4;
43479;PMS5003;29067;35.492;-97.520;2023-03-26T16:57:10;4;4;
43479;PMS5003;29067;35.492;-97.520;2023-03-26T16:59:54;7;7;
43479;PMS5003;29067;35.492;-97.520;2023-03-26T17:01:05;7;7;
43479;PMS5003;29067;35.492;-97.520;2023-03-26T17:03:40;4;3;
43479;PMS5003;29067;35.492;-97.520;2023-03-26T17:07:20;3;3;
43479;PMS5003;29067;35.492;-97.520;2023-03-26T17:09:58;4;4;
43479;PMS5003;29067;35.492;-97.520;2023-03-26T17:12:37;3;3;
43479;PMS5003;29067;35.492;-97.520;2023-03-26T17:15:16;4;3;
43479;PMS5003;29067;35.492;-97.520;2023-03-26T17:18:01;5;4;
43479;PMS5003;29067;35.492;-97.520;2023-03-26T17:20:47;3;3;
43479;PMS5003;29067;35.492;-97.520;2023-03-26T17:23:26;5;4;
43479;PMS5003;29067;35.492;-97.520;2023-03-26T17:26:04;3;3;
43479;PMS5003;29067;35.492;-97.520;2023-03-26T17:28:40;4;4;